Time;durP1;ratioP1;P1;durP2;ratioP2;P2;SDS_P1;SDS_P2;PMS_P1;PMS_P2;Temp;Humidity;BMP_temperature;BMP_pressure;BME280_temperature;BME280_humidity;BME280_pressure;Samples;Min_cycle;Max_cycle;Signal;HPM_P1;HPM_P2
2021/07/31 00:02:03;;;;;;;3.47;2.22;;;18.80;92.60;;;;;;5070572;28;20096;-47
2021/07/31 00:04:28;;;;;;;2.30;1.63;;;18.80;92.80;;;;;;5068684;28;20285;-47
2021/07/31 00:06:54;;;;;;;2.72;1.90;;;18.70;93.00;;;;;;5070817;28;20420;-47
2021/07/31 00:09:19;;;;;;;2.72;1.85;;;18.70;93.20;;;;;;5070559;28;20032;-47
2021/07/31 00:11:45;;;;;;;1.80;1.70;;;18.60;93.40;;;;;;5070427;28;20458;-47
2021/07/31 00:14:10;;;;;;;5.95;2.10;;;18.60;93.70;;;;;;5069848;28;20032;-47
2021/07/31 00:16:36;;;;;;;3.42;2.05;;;18.60;94.00;;;;;;5070097;28;20051;-48
2021/07/31 00:19:01;;;;;;;3.47;2.03;;;18.50;94.20;;;;;;5069118;28;20070;-47
2021/07/31 00:21:27;;;;;;;1.75;1.60;;;18.40;94.60;;;;;;5070308;28;20056;-47
2021/07/31 00:23:52;;;;;;;5.13;2.13;;;18.40;94.80;;;;;;5069510;28;20444;-48
2021/07/31 00:26:18;;;;;;;2.88;1.80;;;18.30;95.00;;;;;;5070243;28;20055;-47
2021/07/31 00:28:44;;;;;;;2.53;1.70;;;18.30;95.40;;;;;;5069026;28;20566;-47
2021/07/31 00:31:09;;;;;;;4.63;1.98;;;18.30;95.60;;;;;;5070012;28;20116;-46
2021/07/31 00:33:34;;;;;;;2.63;1.70;;;18.30;95.80;;;;;;5069437;28;20401;-48
2021/07/31 00:36:00;;;;;;;2.03;1.90;;;18.20;96.30;;;;;;5069895;28;20111;-47
2021/07/31 00:38:25;;;;;;;3.85;1.90;;;18.20;96.40;;;;;;5069903;28;20036;-47
2021/07/31 00:40:51;;;;;;;3.78;1.80;;;18.20;96.60;;;;;;5069803;28;20029;-46
2021/07/31 00:43:16;;;;;;;3.17;1.90;;;18.20;96.60;;;;;;5069395;28;20678;-48
2021/07/31 00:45:42;;;;;;;4.13;2.10;;;18.10;96.70;;;;;;5069528;28;20016;-47
2021/07/31 00:48:07;;;;;;;3.60;1.70;;;18.10;96.90;;;;;;5069912;28;20021;-46
2021/07/31 00:50:34;;;;;;;4.07;1.90;;;18.10;97.00;;;;;;5069799;28;20028;-47
2021/07/31 00:53:00;;;;;;;1.92;1.77;;;18.20;97.00;;;;;;5068481;28;20510;-46
2021/07/31 00:55:27;;;;;;;3.22;1.70;;;18.20;97.40;;;;;;5068348;28;20025;-47
2021/07/31 00:57:54;;;;;;;5.63;2.08;;;18.20;97.30;;;;;;5069557;28;20042;-48
2021/07/31 01:00:19;;;;;;;2.47;1.70;;;18.20;97.60;;;;;;5069532;28;20466;-47
2021/07/31 01:02:45;;;;;;;2.78;2.00;;;18.20;97.70;;;;;;5069505;28;20099;-48
2021/07/31 01:05:11;;;;;;;3.50;1.73;;;18.20;97.60;;;;;;5068991;28;20042;-47
2021/07/31 01:07:37;;;;;;;3.33;1.90;;;18.20;97.60;;;;;;5069720;28;20583;-48
2021/07/31 01:10:04;;;;;;;2.90;1.60;;;18.20;97.70;;;;;;5069507;28;20063;-48
2021/07/31 01:12:33;;;;;;;2.47;1.52;;;18.20;98.00;;;;;;5067935;28;20040;-47
2021/07/31 01:14:58;;;;;;;3.40;2.10;;;18.10;98.00;;;;;;5068553;28;20029;-47
2021/07/31 01:17:24;;;;;;;3.28;1.92;;;18.10;97.80;;;;;;5069193;28;20025;-47
2021/07/31 01:19:49;;;;;;;3.13;1.70;;;18.10;97.90;;;;;;5069023;28;20502;-47
2021/07/31 01:22:15;;;;;;;3.17;1.80;;;18.10;98.00;;;;;;5069112;28;20413;-48
2021/07/31 01:24:40;;;;;;;2.03;1.73;;;18.10;98.10;;;;;;5068500;28;20028;-47
2021/07/31 01:27:06;;;;;;;6.55;1.83;;;18.10;98.10;;;;;;5067549;28;20031;-48
2021/07/31 01:29:32;;;;;;;2.97;2.08;;;18.10;98.30;;;;;;5069094;28;20490;-46
2021/07/31 01:31:58;;;;;;;5.20;2.00;;;18.10;98.50;;;;;;5069166;28;20043;-50
2021/07/31 01:34:23;;;;;;;4.00;1.75;;;18.00;98.90;;;;;;5068825;28;20474;-47
2021/07/31 01:36:49;;;;;;;2.13;1.88;;;17.80;99.30;;;;;;5069240;28;20028;-47
2021/07/31 01:39:15;;;;;;;3.08;1.80;;;17.80;99.70;;;;;;5068910;28;20052;-47
2021/07/31 01:41:40;;;;;;;6.75;2.53;;;17.70;99.90;;;;;;5069308;28;20025;-47
2021/07/31 01:44:06;;;;;;;5.20;1.95;;;17.70;99.90;;;;;;5068172;28;20039;-47
2021/07/31 01:46:31;;;;;;;2.88;1.88;;;17.70;99.90;;;;;;5068857;28;20050;-47
2021/07/31 01:48:57;;;;;;;2.40;2.10;;;17.70;99.90;;;;;;5068805;28;20474;-49
2021/07/31 01:51:22;;;;;;;2.85;1.80;;;17.70;99.90;;;;;;5068624;28;20040;-47
2021/07/31 01:53:48;;;;;;;4.43;1.77;;;17.70;99.90;;;;;;5068143;28;20025;-46
2021/07/31 01:56:13;;;;;;;2.47;1.80;;;17.80;99.90;;;;;;5068697;28;20085;-47
2021/07/31 01:58:39;;;;;;;2.47;1.73;;;17.80;99.90;;;;;;5068818;28;20016;-47
2021/07/31 02:01:05;;;;;;;2.80;1.75;;;17.70;99.90;;;;;;5068850;28;20028;-47
2021/07/31 02:03:30;;;;;;;4.35;1.90;;;17.80;99.90;;;;;;5068503;28;20103;-47
2021/07/31 02:05:57;;;;;;;4.25;1.65;;;17.70;99.90;;;;;;5069174;28;20039;-47
2021/07/31 02:08:23;;;;;;;6.63;2.28;;;17.70;99.90;;;;;;5068639;28;20032;-47
2021/07/31 02:10:49;;;;;;;3.30;1.95;;;17.60;99.90;;;;;;5068943;28;20082;-46
2021/07/31 02:13:15;;;;;;;3.28;2.08;;;17.70;99.90;;;;;;5067934;28;20115;-46
2021/07/31 02:15:41;;;;;;;5.97;1.90;;;17.70;99.90;;;;;;5068392;28;20103;-47
2021/07/31 02:18:07;;;;;;;4.07;1.83;;;17.60;99.90;;;;;;5068624;28;20125;-47
2021/07/31 02:20:32;;;;;;;3.33;2.30;;;17.60;99.90;;;;;;5068572;28;20056;-47
2021/07/31 02:22:58;;;;;;;2.75;1.88;;;17.70;99.90;;;;;;5068602;28;20047;-46
2021/07/31 02:25:23;;;;;;;2.28;1.90;;;17.70;99.90;;;;;;5068035;28;20032;-46
2021/07/31 02:27:50;;;;;;;3.03;1.75;;;17.70;99.90;;;;;;5068345;28;20371;-47
2021/07/31 02:30:15;;;;;;;3.08;2.47;;;17.60;99.90;;;;;;5068402;28;20024;-47
2021/07/31 02:32:41;;;;;;;3.45;2.17;;;17.60;99.90;;;;;;5068337;28;20044;-47
2021/07/31 02:35:08;;;;;;;3.67;2.42;;;17.50;99.90;;;;;;5067862;28;20071;-46
2021/07/31 02:37:33;;;;;;;3.03;2.17;;;17.50;99.90;;;;;;5066780;28;20482;-49
2021/07/31 02:39:59;;;;;;;4.15;2.42;;;17.50;99.90;;;;;;5068187;28;20028;-47
2021/07/31 02:42:24;;;;;;;4.28;2.25;;;17.40;99.90;;;;;;5068237;28;20451;-46
2021/07/31 02:44:50;;;;;;;4.70;2.35;;;17.40;99.90;;;;;;5066421;28;20616;-46
2021/07/31 02:47:15;;;;;;;3.10;1.98;;;17.40;99.90;;;;;;5068614;28;20442;-46
2021/07/31 02:49:41;;;;;;;3.90;2.00;;;17.30;99.90;;;;;;5067128;28;20086;-46
2021/07/31 02:52:06;;;;;;;2.03;1.83;;;17.30;99.90;;;;;;5068607;28;20052;-48
2021/07/31 02:54:32;;;;;;;5.78;2.35;;;17.20;99.90;;;;;;5067716;28;20043;-48
2021/07/31 02:56:57;;;;;;;6.75;2.30;;;17.30;99.90;;;;;;5068130;28;20033;-48
2021/07/31 02:59:23;;;;;;;5.68;2.28;;;17.20;99.90;;;;;;5068326;28;20459;-49
2021/07/31 03:01:49;;;;;;;3.63;2.15;;;17.20;99.90;;;;;;5068225;28;20028;-47
2021/07/31 03:04:16;;;;;;;5.00;2.08;;;17.20;99.90;;;;;;5067428;28;20032;-46
2021/07/31 03:06:41;;;;;;;3.42;2.22;;;17.10;99.90;;;;;;5068077;28;20032;-48
2021/07/31 03:09:07;;;;;;;3.42;2.30;;;17.10;99.90;;;;;;5068029;28;20033;-47
2021/07/31 03:11:32;;;;;;;4.72;2.30;;;17.10;99.90;;;;;;5067988;28;20041;-47
2021/07/31 03:13:58;;;;;;;5.05;2.10;;;17.10;99.90;;;;;;5067367;28;20055;-47
2021/07/31 03:16:23;;;;;;;3.38;2.00;;;17.00;99.90;;;;;;5068037;28;20021;-47
2021/07/31 03:18:49;;;;;;;3.35;2.10;;;17.00;99.90;;;;;;5069002;28;20104;-48
2021/07/31 03:21:14;;;;;;;4.72;1.98;;;17.00;99.90;;;;;;5071459;28;20025;-47
2021/07/31 03:23:40;;;;;;;6.70;1.92;;;17.00;99.90;;;;;;5070686;28;20028;-47
2021/07/31 03:26:05;;;;;;;2.17;1.83;;;16.90;99.90;;;;;;5071170;28;20111;-47
2021/07/31 03:28:31;;;;;;;2.42;1.48;;;16.90;99.90;;;;;;5071212;28;20089;-47
2021/07/31 03:30:57;;;;;;;3.40;2.30;;;16.90;99.90;;;;;;5071287;28;20028;-49
2021/07/31 03:33:23;;;;;;;5.18;1.95;;;16.90;99.90;;;;;;5070418;28;20856;-46
2021/07/31 03:35:51;;;;;;;4.65;2.00;;;16.90;99.90;;;;;;5070967;28;20024;-49
2021/07/31 03:38:17;;;;;;;6.57;2.03;;;16.80;99.90;;;;;;5070560;28;20032;-48
2021/07/31 03:40:42;;;;;;;4.65;1.95;;;16.80;99.90;;;;;;5070780;28;20444;-47
2021/07/31 03:43:08;;;;;;;5.80;2.13;;;16.80;99.90;;;;;;5070831;28;20344;-48
2021/07/31 03:45:33;;;;;;;3.15;1.70;;;16.80;99.90;;;;;;5070447;28;20039;-49
2021/07/31 03:47:59;;;;;;;3.60;1.85;;;16.80;99.90;;;;;;5070816;28;20031;-47
2021/07/31 03:50:24;;;;;;;2.70;2.00;;;16.80;99.90;;;;;;5070943;28;20115;-47
2021/07/31 03:52:50;;;;;;;3.20;1.70;;;16.80;99.90;;;;;;5070980;28;20124;-50
2021/07/31 03:55:15;;;;;;;5.22;1.60;;;16.70;99.90;;;;;;5070183;28;20028;-49
2021/07/31 03:57:41;;;;;;;5.70;2.13;;;16.70;99.90;;;;;;5070806;28;20111;-47
2021/07/31 04:00:07;;;;;;;2.67;1.75;;;16.70;99.90;;;;;;5070846;28;20025;-47
2021/07/31 04:02:33;;;;;;;4.00;2.10;;;16.60;99.90;;;;;;5070511;28;20479;-47
2021/07/31 04:04:59;;;;;;;3.95;2.42;;;16.50;99.90;;;;;;5069940;28;20028;-46
2021/07/31 04:07:25;;;;;;;7.10;2.17;;;16.50;99.90;;;;;;5070457;28;20051;-47
2021/07/31 04:09:51;;;;;;;3.80;1.65;;;16.40;99.90;;;;;;5070461;28;20025;-47
2021/07/31 04:12:16;;;;;;;4.65;2.47;;;16.40;99.90;;;;;;5070083;28;20032;-47
2021/07/31 04:14:42;;;;;;;5.18;2.08;;;16.40;99.90;;;;;;5069599;28;20393;-46
2021/07/31 04:17:07;;;;;;;6.80;1.90;;;16.50;99.90;;;;;;5070277;28;20027;-46
2021/07/31 04:19:33;;;;;;;7.47;1.90;;;16.40;99.90;;;;;;5070208;28;20036;-46
2021/07/31 04:21:58;;;;;;;3.90;1.90;;;16.50;99.90;;;;;;5070192;28;20047;-47
2021/07/31 04:24:27;;;;;;;6.38;2.00;;;16.50;99.90;;;;;;5069307;28;20028;-47
2021/07/31 04:26:53;;;;;;;4.18;2.00;;;16.50;99.90;;;;;;5070298;28;20032;-47
2021/07/31 04:29:19;;;;;;;6.47;2.03;;;16.50;99.90;;;;;;5068675;28;20525;-47
2021/07/31 04:31:46;;;;;;;4.80;2.10;;;16.50;99.90;;;;;;5069846;28;20067;-47
2021/07/31 04:34:12;;;;;;;8.15;2.67;;;16.50;99.90;;;;;;5069572;28;20017;-47
2021/07/31 04:36:37;;;;;;;3.70;2.28;;;16.40;99.90;;;;;;5068403;28;20024;-49
2021/07/31 04:39:04;;;;;;;7.35;2.65;;;16.40;99.90;;;;;;5069809;28;20032;-46
2021/07/31 04:41:30;;;;;;;5.57;2.33;;;16.40;99.90;;;;;;5069847;28;20028;-50
2021/07/31 04:43:55;;;;;;;5.65;2.08;;;16.40;99.90;;;;;;5069027;28;20039;-48
2021/07/31 04:46:21;;;;;;;8.70;2.40;;;16.40;99.90;;;;;;5069564;28;20089;-46
2021/07/31 04:48:47;;;;;;;4.88;2.10;;;16.40;99.90;;;;;;5069510;28;20111;-47
2021/07/31 04:51:13;;;;;;;5.10;2.10;;;16.40;99.90;;;;;;5068074;28;20159;-48
2021/07/31 04:53:38;;;;;;;4.13;2.15;;;16.40;99.90;;;;;;5068758;28;20028;-47
2021/07/31 04:56:04;;;;;;;6.18;2.00;;;16.40;99.90;;;;;;5068076;28;20029;-47
2021/07/31 04:58:29;;;;;;;5.68;2.70;;;16.40;99.90;;;;;;5069544;28;20032;-47
2021/07/31 05:00:55;;;;;;;8.88;2.67;;;16.60;99.90;;;;;;5069312;28;20040;-49
2021/07/31 05:03:21;;;;;;;5.40;1.95;;;16.70;99.90;;;;;;5067404;28;20496;-46
2021/07/31 05:05:47;;;;;;;4.10;2.05;;;16.80;99.90;;;;;;5069239;28;20020;-47
2021/07/31 05:08:13;;;;;;;4.53;1.85;;;16.80;99.90;;;;;;5069273;28;20633;-46
2021/07/31 05:10:44;;;;;;;7.25;1.92;;;16.90;99.90;;;;;;5069228;28;20107;-48
2021/07/31 05:13:09;;;;;;;5.50;2.08;;;16.90;99.90;;;;;;5068983;28;20028;-46
2021/07/31 05:15:40;;;;;;;9.57;1.88;;;16.90;99.90;;;;;;5068663;28;20468;-47
2021/07/31 05:18:06;;;;;;;;;;;17.00;99.90;;;;;;5069748;28;20024;-47
2021/07/31 05:20:33;;;;;;;6.72;2.22;;;17.00;99.90;;;;;;5068817;28;19980;-47
2021/07/31 05:22:59;;;;;;;6.35;2.20;;;17.10;99.90;;;;;;5068880;28;20450;-50
2021/07/31 05:25:24;;;;;;;17.05;2.47;;;17.10;99.90;;;;;;5068304;28;20024;-46
2021/07/31 05:27:50;;;;;;;4.15;2.00;;;17.20;99.90;;;;;;5068986;28;20431;-47
2021/07/31 05:30:16;;;;;;;4.43;2.33;;;17.30;99.90;;;;;;5069060;28;20474;-47
2021/07/31 05:32:41;;;;;;;3.63;2.40;;;17.40;99.90;;;;;;5068949;28;20031;-48
2021/07/31 05:35:08;;;;;;;5.28;1.60;;;17.60;99.80;;;;;;5067988;28;20044;-47
2021/07/31 05:37:33;;;;;;;3.97;1.77;;;17.60;99.40;;;;;;5068729;28;20066;-47
2021/07/31 05:40:01;;;;;;;3.83;1.85;;;17.80;99.20;;;;;;5068709;28;20431;-48
2021/07/31 05:42:27;;;;;;;3.10;1.80;;;17.80;98.60;;;;;;5068185;28;20482;-47
2021/07/31 05:45:00;;;;;;;6.57;2.20;;;17.90;98.40;;;;;;5067947;28;20020;-48
2021/07/31 05:47:27;;;;;;;5.47;1.80;;;17.90;98.20;;;;;;5068542;28;20040;-48
2021/07/31 05:49:53;;;;;;;4.25;1.70;;;18.00;97.90;;;;;;5068522;28;20116;-48
2021/07/31 05:52:24;;;;;;;3.67;1.70;;;18.10;97.30;;;;;;5067134;28;20115;-46
2021/07/31 05:54:49;;;;;;;6.45;1.52;;;18.20;97.00;;;;;;5068385;28;20024;-47
2021/07/31 05:57:15;;;;;;;6.63;1.83;;;18.20;96.70;;;;;;5068479;28;20643;-47
2021/07/31 05:59:41;;;;;;;4.57;1.80;;;18.20;96.30;;;;;;5067280;28;20021;-47
2021/07/31 06:02:06;;;;;;;1.95;1.45;;;18.30;96.00;;;;;;5068519;28;20025;-48
2021/07/31 06:04:33;;;;;;;4.32;1.48;;;18.30;96.00;;;;;;5067776;28;20021;-47
2021/07/31 06:07:00;;;;;;;5.20;1.33;;;18.40;95.80;;;;;;5068377;28;20027;-47
2021/07/31 06:09:26;;;;;;;8.38;1.60;;;18.40;95.70;;;;;;5068498;28;20017;-47
2021/07/31 06:11:51;;;;;;;1.73;1.30;;;18.40;95.50;;;;;;5068245;28;20037;-50
2021/07/31 06:14:17;;;;;;;2.00;1.33;;;18.50;95.30;;;;;;5068155;28;20074;-49
2021/07/31 06:16:42;;;;;;;3.83;1.20;;;18.40;95.40;;;;;;5068388;28;20104;-47
2021/07/31 06:19:08;;;;;;;5.95;1.48;;;18.30;95.30;;;;;;5068356;28;20518;-50
2021/07/31 06:21:33;;;;;;;2.72;1.30;;;18.30;95.50;;;;;;5068153;28;20107;-48
2021/07/31 06:23:59;;;;;;;12.18;2.08;;;18.30;95.20;;;;;;5066226;28;20090;-47
2021/07/31 06:26:24;;;;;;;5.43;1.63;;;18.30;95.50;;;;;;5068310;28;20267;-48
2021/07/31 06:28:50;;;;;;;4.35;1.50;;;18.30;95.50;;;;;;5068174;28;20116;-50
2021/07/31 06:31:15;;;;;;;3.47;1.38;;;18.40;95.10;;;;;;5068089;28;20101;-46
2021/07/31 06:33:41;;;;;;;5.20;1.50;;;18.50;94.80;;;;;;5067323;28;20120;-48
2021/07/31 06:36:06;;;;;;;6.70;1.23;;;18.60;94.70;;;;;;5068009;28;20497;-48
2021/07/31 06:38:32;;;;;;;6.20;1.35;;;18.60;94.50;;;;;;5068101;28;20027;-48
2021/07/31 06:40:57;;;;;;;4.97;1.50;;;18.70;94.40;;;;;;5067933;28;20167;-49
2021/07/31 06:43:23;;;;;;;2.85;1.60;;;18.90;94.40;;;;;;5067118;28;20056;-48
2021/07/31 06:45:48;;;;;;;6.70;1.67;;;18.90;94.00;;;;;;5067838;28;20036;-47
2021/07/31 06:48:13;;;;;;;2.95;1.45;;;18.90;93.50;;;;;;5067962;28;20108;-47
2021/07/31 06:50:39;;;;;;;8.20;1.77;;;18.90;93.70;;;;;;5067933;28;20433;-47
2021/07/31 06:53:04;;;;;;;4.85;1.60;;;18.90;92.90;;;;;;5066660;28;20060;-49
2021/07/31 06:55:30;;;;;;;3.13;1.77;;;18.90;93.20;;;;;;5070873;28;20207;-48
2021/07/31 06:57:55;;;;;;;6.15;1.55;;;18.90;93.50;;;;;;5071905;28;20382;-47
2021/07/31 07:00:21;;;;;;;2.30;1.40;;;18.90;93.30;;;;;;5072060;28;20021;-47
2021/07/31 07:02:46;;;;;;;3.78;1.30;;;18.90;93.30;;;;;;5071632;28;20680;-48
2021/07/31 07:05:12;;;;;;;5.50;1.40;;;18.90;93.60;;;;;;5071072;28;20025;-49
2021/07/31 07:07:37;;;;;;;5.10;1.90;;;19.00;93.30;;;;;;5071528;28;20032;-47
2021/07/31 07:10:04;;;;;;;5.05;1.50;;;19.00;92.90;;;;;;5071518;28;20436;-49
2021/07/31 07:12:30;;;;;;;1.98;1.45;;;19.00;92.80;;;;;;5071359;28;20067;-47
2021/07/31 07:14:55;;;;;;;6.57;1.35;;;19.10;92.70;;;;;;5069345;28;20423;-49
2021/07/31 07:17:21;;;;;;;5.72;1.73;;;19.10;92.70;;;;;;5071200;28;20024;-50
2021/07/31 07:19:47;;;;;;;2.55;1.33;;;19.10;92.50;;;;;;5070722;28;20379;-50
2021/07/31 07:22:12;;;;;;;5.95;1.73;;;19.20;92.30;;;;;;5070560;28;20085;-49
2021/07/31 07:24:38;;;;;;;5.00;1.77;;;19.30;91.90;;;;;;5070172;28;20032;-49
2021/07/31 07:27:03;;;;;;;5.72;1.50;;;19.30;91.80;;;;;;5069260;28;20125;-46
2021/07/31 07:29:29;;;;;;;2.80;1.40;;;19.40;91.60;;;;;;5070445;28;20483;-49
2021/07/31 07:31:55;;;;;;;4.18;1.55;;;19.50;91.40;;;;;;5052169;28;20604;-49
2021/07/31 07:34:21;;;;;;;3.72;1.63;;;19.70;91.60;;;;;;5069818;28;20024;-48
2021/07/31 07:36:46;;;;;;;4.25;1.23;;;19.80;90.70;;;;;;5070398;28;20107;-49
2021/07/31 07:39:12;;;;;;;4.82;1.42;;;19.90;90.30;;;;;;5070565;28;20474;-48
2021/07/31 07:41:37;;;;;;;4.60;1.40;;;20.00;90.00;;;;;;5070443;28;20025;-47
2021/07/31 07:44:03;;;;;;;2.90;1.50;;;19.80;90.00;;;;;;5069786;28;20033;-50
2021/07/31 07:46:28;;;;;;;3.55;1.33;;;19.70;89.70;;;;;;5070357;28;20048;-47
2021/07/31 07:48:54;;;;;;;2.55;1.30;;;19.90;90.00;;;;;;5070305;28;20253;-47
2021/07/31 07:51:19;;;;;;;5.00;1.40;;;20.00;89.00;;;;;;5068767;28;20426;-49
2021/07/31 07:53:45;;;;;;;3.75;0.98;;;20.00;89.10;;;;;;5069624;28;20103;-48
2021/07/31 07:56:11;;;;;;;3.38;1.00;;;20.20;88.10;;;;;;5069994;28;20070;-50
2021/07/31 07:58:36;;;;;;;3.30;1.40;;;20.50;87.90;;;;;;5070542;28;20490;-49
2021/07/31 08:01:03;;;;;;;3.50;1.50;;;20.60;87.30;;;;;;5070617;28;20025;-49
2021/07/31 08:03:29;;;;;;;3.15;1.55;;;20.50;86.10;;;;;;5069891;28;20028;-47
2021/07/31 08:05:54;;;;;;;5.40;1.77;;;20.50;86.90;;;;;;5070298;28;20055;-49
2021/07/31 08:08:20;;;;;;;2.65;1.30;;;20.70;86.30;;;;;;5070371;28;20025;-46
2021/07/31 08:10:45;;;;;;;3.80;1.60;;;20.70;85.50;;;;;;5070532;28;20508;-48
2021/07/31 08:13:11;;;;;;;2.75;1.30;;;20.80;85.90;;;;;;5069919;28;20036;-47
2021/07/31 08:15:36;;;;;;;2.30;1.30;;;21.10;84.20;;;;;;5069764;28;20021;-47
2021/07/31 08:18:02;;;;;;;6.05;1.77;;;21.10;83.90;;;;;;5070511;28;20071;-46
2021/07/31 08:20:28;;;;;;;5.05;1.45;;;21.10;83.10;;;;;;5070072;28;20413;-46
2021/07/31 08:22:54;;;;;;;5.05;1.50;;;21.30;83.80;;;;;;5070416;28;20397;-46
2021/07/31 08:25:19;;;;;;;2.00;1.30;;;21.50;82.60;;;;;;5069416;28;20059;-48
2021/07/31 08:27:45;;;;;;;1.58;1.10;;;21.70;81.90;;;;;;5070011;28;20100;-48
2021/07/31 08:30:11;;;;;;;1.83;1.45;;;21.80;81.00;;;;;;5069862;28;20020;-49
2021/07/31 08:32:36;;;;;;;7.05;1.20;;;21.90;80.50;;;;;;5069785;28;20028;-47
2021/07/31 08:35:02;;;;;;;5.68;1.33;;;21.90;79.40;;;;;;5069261;28;20394;-46
2021/07/31 08:37:28;;;;;;;3.85;1.52;;;21.80;80.00;;;;;;5070103;28;20035;-48
2021/07/31 08:39:54;;;;;;;3.53;0.95;;;21.60;79.80;;;;;;5069860;28;20495;-47
2021/07/31 08:42:19;;;;;;;3.05;1.30;;;21.90;80.60;;;;;;5069777;28;20028;-49
2021/07/31 08:44:45;;;;;;;4.47;1.42;;;22.60;78.70;;;;;;5068854;28;20028;-47
2021/07/31 08:47:11;;;;;;;1.50;1.20;;;23.00;78.20;;;;;;5068279;28;20029;-47
2021/07/31 08:49:39;;;;;;;5.82;1.50;;;23.80;75.70;;;;;;5069653;28;20032;-47
2021/07/31 08:52:06;;;;;;;4.75;1.30;;;24.10;71.10;;;;;;5069690;28;20029;-48
2021/07/31 08:54:35;;;;;;;2.08;0.90;;;25.20;68.80;;;;;;5069315;28;20024;-48
2021/07/31 08:57:00;;;;;;;3.85;1.20;;;26.10;66.30;;;;;;5069377;28;20035;-48
2021/07/31 08:59:27;;;;;;;1.73;1.00;;;26.40;64.50;;;;;;5069194;28;20025;-50
2021/07/31 09:01:53;;;;;;;1.30;0.93;;;27.00;62.60;;;;;;5069102;28;20029;-48
2021/07/31 09:04:18;;;;;;;2.10;1.10;;;26.60;62.10;;;;;;5068510;28;20111;-47
2021/07/31 09:06:47;;;;;;;4.15;1.20;;;25.20;63.90;;;;;;5069077;28;20489;-46
2021/07/31 09:09:12;;;;;;;6.18;1.50;;;25.20;65.00;;;;;;5069393;28;20024;-47
2021/07/31 09:11:55;;;;;;;2.92;1.10;;;24.30;65.50;;;;;;5068842;28;20028;-49
2021/07/31 09:14:20;;;;;;;3.33;1.17;;;23.40;67.90;;;;;;5068570;28;20131;-48
2021/07/31 09:16:46;;;;;;;3.00;1.40;;;22.60;70.80;;;;;;5068271;28;20040;-48
2021/07/31 09:19:16;;;;;;;8.45;1.38;;;21.90;72.90;;;;;;5067790;28;20055;-46
2021/07/31 09:21:43;;;;;;;2.55;1.38;;;21.50;73.70;;;;;;5068943;28;20115;-47
2021/07/31 09:24:20;;;;;;;8.20;1.85;;;21.20;75.50;;;;;;5068077;28;20028;-46
2021/07/31 09:26:51;;;;;;;3.33;1.40;;;20.80;76.70;;;;;;5068939;28;20070;-46
2021/07/31 09:29:28;;;;;;;2.72;1.55;;;20.50;77.20;;;;;;5068892;28;20494;-46
2021/07/31 09:32:02;;;;;;;9.30;1.67;;;20.50;78.50;;;;;;5068783;28;20475;-46
2021/07/31 09:34:43;;;;;;;4.47;1.30;;;20.70;78.20;;;;;;5068087;28;20036;-46
2021/07/31 09:37:17;;;;;;;5.40;1.70;;;20.70;78.20;;;;;;5068863;28;20020;-46
2021/07/31 09:39:58;;;;;;;3.97;1.60;;;20.70;78.50;;;;;;5069020;28;20048;-46
2021/07/31 09:42:30;;;;;;;4.03;1.50;;;20.70;78.90;;;;;;5068960;28;20032;-45
2021/07/31 09:44:57;;;;;;;3.50;1.35;;;20.70;78.60;;;;;;5068115;28;20024;-48
2021/07/31 09:47:23;;;;;;;4.40;1.27;;;20.70;79.30;;;;;;5051108;28;20020;-46
2021/07/31 09:49:50;;;;;;;3.60;1.30;;;20.60;79.20;;;;;;5068987;28;20024;-46
2021/07/31 09:52:20;;;;;;;6.97;1.42;;;20.50;79.70;;;;;;5068671;28;20025;-46
2021/07/31 09:54:46;;;;;;;2.55;1.38;;;20.50;80.50;;;;;;5067905;28;20021;-47
2021/07/31 09:57:12;;;;;;;6.07;2.05;;;20.30;80.90;;;;;;5068378;28;20025;-47
2021/07/31 09:59:47;;;;;;;2.42;1.20;;;20.10;81.20;;;;;;5068428;28;20013;-51
2021/07/31 10:02:17;;;;;;;2.08;1.13;;;20.00;81.70;;;;;;5068542;28;20108;-46
2021/07/31 10:04:44;;;;;;;;;;;20.30;81.30;;;;;;5068366;28;20063;-46
2021/07/31 10:07:10;;;;;;;4.82;1.38;;;20.60;81.40;;;;;;5068315;28;20131;-48
2021/07/31 10:09:39;;;;;;;3.17;1.42;;;20.80;80.30;;;;;;5068264;28;20394;-47
2021/07/31 10:12:08;;;;;;;4.07;1.52;;;21.10;80.10;;;;;;5068278;28;20025;-48
2021/07/31 10:14:34;;;;;;;8.00;1.58;;;21.60;79.30;;;;;;5067546;28;20024;-48
2021/07/31 10:17:00;;;;;;;3.70;1.23;;;22.20;77.40;;;;;;5068031;28;20039;-47
2021/07/31 10:19:25;;;;;;;2.97;1.13;;;22.40;75.00;;;;;;5068273;28;20033;-48
2021/07/31 10:21:55;;;;;;;2.35;1.10;;;22.30;74.80;;;;;;5067027;28;20024;-47
2021/07/31 10:24:21;;;;;;;5.60;1.15;;;22.20;76.80;;;;;;5067893;28;20020;-49
2021/07/31 10:27:17;;;;;;;2.42;1.25;;;21.60;77.50;;;;;;5068492;28;20041;-46
2021/07/31 10:29:45;;;;;;;2.90;1.55;;;21.30;77.70;;;;;;5072803;28;20032;-49
2021/07/31 10:32:30;;;;;;;3.95;1.42;;;21.00;79.40;;;;;;5072548;28;20024;-46
2021/07/31 10:34:58;;;;;;;13.55;2.00;;;20.90;79.70;;;;;;5071770;28;20013;-47
2021/07/31 10:37:34;;;;;;;6.43;1.50;;;21.60;78.70;;;;;;5072324;28;20100;-46
2021/07/31 10:40:37;;;;;;;3.83;1.50;;;22.70;76.70;;;;;;5072259;28;20020;-46
2021/07/31 10:43:04;;;;;;;4.55;1.50;;;24.40;71.30;;;;;;5070347;28;20047;-49
2021/07/31 10:45:31;;;;;;;5.20;1.25;;;25.80;69.30;;;;;;5071267;28;20079;-48
2021/07/31 10:47:59;;;;;;;2.13;1.45;;;26.90;66.00;;;;;;5072342;28;20371;-47
2021/07/31 10:50:27;;;;;;;17.15;1.73;;;27.00;63.60;;;;;;5072248;28;20626;-47
2021/07/31 10:53:12;;;;;;;5.07;1.52;;;27.00;63.30;;;;;;5071913;28;20052;-48
2021/07/31 10:55:38;;;;;;;4.18;1.60;;;26.70;62.60;;;;;;5071509;28;20051;-50
2021/07/31 10:58:07;;;;;;;3.30;1.17;;;27.20;62.60;;;;;;5071784;28;20109;-47
2021/07/31 11:00:40;;;;;;;1.92;1.00;;;28.10;60.50;;;;;;5071577;28;20020;-47
2021/07/31 11:03:13;;;;;;;3.65;1.52;;;27.60;60.00;;;;;;5071867;28;20049;-49
2021/07/31 11:05:47;;;;;;;3.35;1.20;;;26.50;61.80;;;;;;5071383;28;20028;-47
2021/07/31 11:08:13;;;;;;;4.40;1.75;;;26.60;60.90;;;;;;5071706;28;20068;-47
2021/07/31 11:10:43;;;;;;;2.17;1.40;;;25.20;63.60;;;;;;5071467;28;20028;-46
2021/07/31 11:13:17;;;;;;;7.30;1.48;;;24.20;66.10;;;;;;5071427;28;20024;-47
2021/07/31 11:15:55;;;;;;;2.33;1.50;;;23.30;68.70;;;;;;5071456;28;20490;-46
2021/07/31 11:18:24;;;;;;;6.28;1.60;;;23.20;69.60;;;;;;5071800;28;20159;-47
2021/07/31 11:20:50;;;;;;;2.40;1.30;;;24.00;68.10;;;;;;5071621;28;20016;-48
2021/07/31 11:23:18;;;;;;;3.55;1.45;;;25.30;66.40;;;;;;5071172;28;20035;-47
2021/07/31 11:25:44;;;;;;;4.35;1.40;;;26.70;62.10;;;;;;5071360;28;20043;-49
2021/07/31 11:28:10;;;;;;;5.85;1.60;;;27.50;60.30;;;;;;5071529;28;20033;-50
2021/07/31 11:30:42;;;;;;;2.03;1.20;;;27.90;59.10;;;;;;5071374;28;20383;-47
2021/07/31 11:33:20;;;;;;;4.78;1.40;;;27.60;60.30;;;;;;5071288;28;20024;-49
2021/07/31 11:35:46;;;;;;;3.88;1.38;;;28.80;58.10;;;;;;5071598;28;20031;-47
2021/07/31 11:38:36;;;;;;;3.70;1.30;;;29.20;57.20;;;;;;5071586;28;20021;-50
2021/07/31 11:41:04;;;;;;;2.38;1.25;;;30.20;55.10;;;;;;5071063;28;20032;-48
2021/07/31 11:43:45;;;;;;;5.85;1.55;;;30.70;52.10;;;;;;5070674;28;20486;-50
2021/07/31 11:46:23;;;;;;;3.65;1.40;;;29.40;52.70;;;;;;5071340;28;20029;-47
2021/07/31 11:48:48;;;;;;;10.20;1.52;;;28.20;56.00;;;;;;5071312;28;20111;-48
2021/07/31 11:51:14;;;;;;;2.08;1.15;;;27.70;56.00;;;;;;5071189;28;20112;-47
2021/07/31 11:53:39;;;;;;;4.03;1.45;;;26.30;57.80;;;;;;5070486;28;20091;-47
2021/07/31 11:56:12;;;;;;;5.80;1.33;;;26.00;59.10;;;;;;5071126;28;20103;-47
2021/07/31 11:58:40;;;;;;;7.60;1.38;;;25.60;60.10;;;;;;5069789;28;20031;-47
2021/07/31 12:01:07;;;;;;;2.58;1.42;;;25.30;61.70;;;;;;5071092;28;20027;-47
2021/07/31 12:03:43;;;;;;;3.40;1.75;;;25.50;60.80;;;;;;5070513;28;20436;-49
2021/07/31 12:06:28;;;;;;;5.13;1.35;;;24.90;62.10;;;;;;5070904;28;20021;-50
2021/07/31 12:08:57;;;;;;;4.10;1.42;;;23.90;63.80;;;;;;5070686;28;20063;-47
2021/07/31 12:11:42;;;;;;;3.20;1.30;;;23.30;65.30;;;;;;5070619;28;20564;-49
2021/07/31 12:14:26;;;;;;;6.60;1.35;;;22.90;67.70;;;;;;5069951;28;20033;-49
2021/07/31 12:16:52;;;;;;;7.43;1.67;;;23.40;66.70;;;;;;5070549;28;20025;-46
2021/07/31 12:19:17;;;;;;;3.42;1.60;;;24.10;65.60;;;;;;5070299;28;20025;-47
2021/07/31 12:21:43;;;;;;;3.78;1.65;;;24.00;64.90;;;;;;5070328;28;20029;-47
2021/07/31 12:24:18;;;;;;;5.35;1.77;;;23.50;65.90;;;;;;5069583;28;20578;-47
2021/07/31 12:26:53;;;;;;;1.42;1.33;;;23.20;66.70;;;;;;5070210;28;20052;-46
2021/07/31 12:29:39;;;;;;;4.25;1.30;;;23.20;67.20;;;;;;5070187;28;20398;-46
2021/07/31 12:32:25;;;;;;;3.03;1.27;;;22.80;67.70;;;;;;5070004;28;20031;-49
2021/07/31 12:34:52;;;;;;;2.70;1.33;;;22.70;68.50;;;;;;5069285;28;20090;-48
2021/07/31 12:37:18;;;;;;;2.80;1.45;;;23.00;69.50;;;;;;5069867;28;20647;-46
2021/07/31 12:39:43;;;;;;;5.72;1.50;;;23.20;68.00;;;;;;5069846;28;20029;-47
2021/07/31 12:42:09;;;;;;;3.63;1.25;;;23.20;68.30;;;;;;5069690;28;20029;-47
2021/07/31 12:44:36;;;;;;;3.00;1.23;;;23.10;67.80;;;;;;5069044;28;20504;-47
2021/07/31 12:47:02;;;;;;;7.95;1.55;;;23.00;68.40;;;;;;5069965;28;20031;-48
2021/07/31 12:49:28;;;;;;;2.97;1.20;;;22.80;68.80;;;;;;5069745;28;20028;-47